sensor_id;sensor_type;location;lat;lon;timestamp;pressure;altitude;pressure_sealevel;temperature;humidity
6433;BME280;3249;42.690;23.260;2022-10-16T00:01:11;95030.25;;;7.31;100.00
6433;BME280;3249;42.690;23.260;2022-10-16T00:03:38;95040.84;;;7.28;100.00
6433;BME280;3249;42.690;23.260;2022-10-16T00:06:04;95045.84;;;7.36;100.00
6433;BME280;3249;42.690;23.260;2022-10-16T00:08:30;95015.22;;;7.28;100.00
6433;BME280;3249;42.690;23.260;2022-10-16T00:11:05;95051.59;;;7.53;100.00
6433;BME280;3249;42.690;23.260;2022-10-16T00:13:32;95060.09;;;7.53;100.00
6433;BME280;3249;42.690;23.260;2022-10-16T00:15:59;95050.13;;;7.44;100.00
6433;BME280;3249;42.690;23.260;2022-10-16T00:18:26;95051.94;;;7.50;100.00
6433;BME280;3249;42.690;23.260;2022-10-16T00:20:52;95054.97;;;7.24;100.00
6433;BME280;3249;42.690;23.260;2022-10-16T00:23:18;95051.44;;;7.25;100.00
6433;BME280;3249;42.690;23.260;2022-10-16T00:25:44;95055.31;;;7.36;100.00
6433;BME280;3249;42.690;23.260;2022-10-16T00:28:09;95060.06;;;7.24;100.00
6433;BME280;3249;42.690;23.260;2022-10-16T00:30:38;95062.13;;;7.29;100.00
6433;BME280;3249;42.690;23.260;2022-10-16T00:33:03;95063.34;;;7.18;100.00
6433;BME280;3249;42.690;23.260;2022-10-16T00:35:28;95055.03;;;7.16;100.00
6433;BME280;3249;42.690;23.260;2022-10-16T00:37:54;95060.72;;;7.26;100.00
6433;BME280;3249;42.690;23.260;2022-10-16T00:40:19;95056.91;;;7.22;100.00
6433;BME280;3249;42.690;23.260;2022-10-16T00:42:45;95026.53;;;7.05;100.00
6433;BME280;3249;42.690;23.260;2022-10-16T00:45:11;95060.97;;;7.31;100.00
6433;BME280;3249;42.690;23.260;2022-10-16T00:47:42;95056.38;;;7.12;100.00
6433;BME280;3249;42.690;23.260;2022-10-16T00:52:48;95052.28;;;6.74;100.00
6433;BME280;3249;42.690;23.260;2022-10-16T00:55:16;95047.69;;;6.84;100.00
6433;BME280;3249;42.690;23.260;2022-10-16T00:57:42;95028.72;;;6.79;100.00
6433;BME280;3249;42.690;23.260;2022-10-16T01:00:10;95058.97;;;6.75;100.00
6433;BME280;3249;42.690;23.260;2022-10-16T01:02:36;95056.78;;;6.87;100.00
6433;BME280;3249;42.690;23.260;2022-10-16T01:05:02;95056.09;;;6.93;100.00
6433;BME280;3249;42.690;23.260;2022-10-16T01:07:56;95019.09;;;6.66;100.00
6433;BME280;3249;42.690;23.260;2022-10-16T01:10:35;95056.09;;;6.93;100.00
6433;BME280;3249;42.690;23.260;2022-10-16T01:13:09;95061.88;;;6.87;100.00
6433;BME280;3249;42.690;23.260;2022-10-16T01:18:21;95066.00;;;6.73;100.00
6433;BME280;3249;42.690;23.260;2022-10-16T01:20:57;95059.84;;;6.68;100.00
6433;BME280;3249;42.690;23.260;2022-10-16T01:31:35;95050.16;;;6.41;100.00
6433;BME280;3249;42.690;23.260;2022-10-16T01:36:42;95050.22;;;6.10;100.00
6433;BME280;3249;42.690;23.260;2022-10-16T01:39:11;95055.81;;;6.28;100.00
6433;BME280;3249;42.690;23.260;2022-10-16T01:42:01;95047.75;;;6.39;100.00
6433;BME280;3249;42.690;23.260;2022-10-16T01:44:31;95054.72;;;6.45;100.00
6433;BME280;3249;42.690;23.260;2022-10-16T01:46:59;95017.53;;;6.20;100.00
6433;BME280;3249;42.690;23.260;2022-10-16T01:49:27;95053.78;;;6.46;100.00
6433;BME280;3249;42.690;23.260;2022-10-16T01:51:56;95060.16;;;6.50;100.00
6433;BME280;3249;42.690;23.260;2022-10-16T01:54:27;95070.00;;;6.53;100.00
6433;BME280;3249;42.690;23.260;2022-10-16T01:56:55;95069.69;;;6.56;100.00
6433;BME280;3249;42.690;23.260;2022-10-16T01:59:23;95070.25;;;6.66;100.00
6433;BME280;3249;42.690;23.260;2022-10-16T02:01:52;95072.16;;;6.64;100.00
6433;BME280;3249;42.690;23.260;2022-10-16T02:04:47;95076.63;;;6.48;100.00
6433;BME280;3249;42.690;23.260;2022-10-16T02:07:14;95069.91;;;6.24;100.00
6433;BME280;3249;42.690;23.260;2022-10-16T02:09:40;95042.50;;;6.18;100.00
6433;BME280;3249;42.690;23.260;2022-10-16T02:12:15;95074.00;;;6.33;100.00
6433;BME280;3249;42.690;23.260;2022-10-16T02:14:41;95030.00;;;6.01;100.00
6433;BME280;3249;42.690;23.260;2022-10-16T02:17:12;95046.97;;;6.16;100.00
6433;BME280;3249;42.690;23.260;2022-10-16T02:19:37;95033.97;;;6.03;100.00
6433;BME280;3249;42.690;23.260;2022-10-16T02:22:04;95083.66;;;6.23;100.00
6433;BME280;3249;42.690;23.260;2022-10-16T02:24:59;95090.53;;;6.23;100.00
6433;BME280;3249;42.690;23.260;2022-10-16T02:27:33;95092.53;;;6.13;100.00
6433;BME280;3249;42.690;23.260;2022-10-16T02:30:07;95044.03;;;5.66;100.00
6433;BME280;3249;42.690;23.260;2022-10-16T02:32:36;95088.94;;;5.99;100.00
6433;BME280;3249;42.690;23.260;2022-10-16T02:35:04;95047.25;;;5.60;100.00
6433;BME280;3249;42.690;23.260;2022-10-16T02:37:30;95073.91;;;5.66;100.00
6433;BME280;3249;42.690;23.260;2022-10-16T02:39:57;95079.94;;;5.73;100.00
6433;BME280;3249;42.690;23.260;2022-10-16T02:42:28;95044.59;;;5.54;100.00
6433;BME280;3249;42.690;23.260;2022-10-16T02:44:54;95083.91;;;5.75;100.00
6433;BME280;3249;42.690;23.260;2022-10-16T02:47:20;95093.78;;;5.86;100.00
6433;BME280;3249;42.690;23.260;2022-10-16T02:49:45;95100.13;;;5.98;100.00
6433;BME280;3249;42.690;23.260;2022-10-16T02:52:11;95107.47;;;5.93;100.00
6433;BME280;3249;42.690;23.260;2022-10-16T02:54:36;95103.50;;;5.91;100.00
6433;BME280;3249;42.690;23.260;2022-10-16T02:57:01;95108.16;;;5.79;100.00
6433;BME280;3249;42.690;23.260;2022-10-16T02:59:27;95109.34;;;5.61;100.00
6433;BME280;3249;42.690;23.260;2022-10-16T03:01:52;95081.88;;;5.63;100.00
6433;BME280;3249;42.690;23.260;2022-10-16T03:04:18;95100.81;;;5.84;100.00
6433;BME280;3249;42.690;23.260;2022-10-16T03:06:43;95101.78;;;5.83;100.00
6433;BME280;3249;42.690;23.260;2022-10-16T03:09:09;95106.22;;;5.89;100.00
6433;BME280;3249;42.690;23.260;2022-10-16T03:11:34;95107.25;;;6.03;100.00
6433;BME280;3249;42.690;23.260;2022-10-16T03:13:59;95107.59;;;6.00;100.00
6433;BME280;3249;42.690;23.260;2022-10-16T03:16:25;95103.28;;;6.00;100.00
6433;BME280;3249;42.690;23.260;2022-10-16T03:18:50;95102.75;;;6.13;100.00
6433;BME280;3249;42.690;23.260;2022-10-16T03:21:16;95068.06;;;5.88;100.00
6433;BME280;3249;42.690;23.260;2022-10-16T03:23:42;95111.50;;;6.18;100.00
6433;BME280;3249;42.690;23.260;2022-10-16T03:26:07;95114.19;;;5.94;100.00
6433;BME280;3249;42.690;23.260;2022-10-16T03:28:32;95123.72;;;6.00;100.00
6433;BME280;3249;42.690;23.260;2022-10-16T03:30:58;95124.53;;;6.01;100.00
6433;BME280;3249;42.690;23.260;2022-10-16T03:33:23;95123.34;;;5.81;100.00
6433;BME280;3249;42.690;23.260;2022-10-16T03:35:53;95126.78;;;5.96;100.00
6433;BME280;3249;42.690;23.260;2022-10-16T03:38:19;95112.56;;;5.55;100.00
6433;BME280;3249;42.690;23.260;2022-10-16T03:40:45;95121.31;;;5.60;100.00
6433;BME280;3249;42.690;23.260;2022-10-16T03:43:10;95116.47;;;5.73;100.00
6433;BME280;3249;42.690;23.260;2022-10-16T03:45:36;95116.34;;;5.67;100.00
6433;BME280;3249;42.690;23.260;2022-10-16T03:48:01;95113.63;;;5.68;100.00
6433;BME280;3249;42.690;23.260;2022-10-16T03:50:28;95103.81;;;5.41;100.00
6433;BME280;3249;42.690;23.260;2022-10-16T03:52:54;95119.81;;;5.27;100.00
6433;BME280;3249;42.690;23.260;2022-10-16T03:55:19;95110.22;;;5.29;100.00
6433;BME280;3249;42.690;23.260;2022-10-16T03:57:45;95093.63;;;5.33;100.00
6433;BME280;3249;42.690;23.260;2022-10-16T04:00:11;95111.28;;;5.51;100.00
6433;BME280;3249;42.690;23.260;2022-10-16T04:02:37;95059.22;;;5.21;100.00
6433;BME280;3249;42.690;23.260;2022-10-16T04:05:02;95113.81;;;5.59;100.00
6433;BME280;3249;42.690;23.260;2022-10-16T04:07:27;95109.97;;;5.63;100.00
6433;BME280;3249;42.690;23.260;2022-10-16T04:09:54;95111.72;;;5.62;100.00
6433;BME280;3249;42.690;23.260;2022-10-16T04:12:19;95110.78;;;5.63;100.00
6433;BME280;3249;42.690;23.260;2022-10-16T04:14:45;95073.47;;;5.46;100.00
6433;BME280;3249;42.690;23.260;2022-10-16T04:17:10;95066.47;;;5.48;100.00
6433;BME280;3249;42.690;23.260;2022-10-16T04:19:35;95094.47;;;5.72;100.00
6433;BME280;3249;42.690;23.260;2022-10-16T04:22:02;95064.25;;;5.76;100.00
6433;BME280;3249;42.690;23.260;2022-10-16T04:24:27;95102.16;;;6.03;100.00
6433;BME280;3249;42.690;23.260;2022-10-16T04:26:53;95118.63;;;6.00;100.00
6433;BME280;3249;42.690;23.260;2022-10-16T04:29:18;95091.09;;;5.72;100.00
6433;BME280;3249;42.690;23.260;2022-10-16T04:31:44;95066.53;;;5.32;100.00
6433;BME280;3249;42.690;23.260;2022-10-16T04:34:09;95066.91;;;5.05;100.00
6433;BME280;3249;42.690;23.260;2022-10-16T04:36:34;95117.53;;;5.48;100.00
6433;BME280;3249;42.690;23.260;2022-10-16T04:39:00;95130.00;;;5.43;100.00
6433;BME280;3249;42.690;23.260;2022-10-16T04:41:25;95121.41;;;5.36;100.00
6433;BME280;3249;42.690;23.260;2022-10-16T04:43:51;95120.56;;;5.44;100.00
6433;BME280;3249;42.690;23.260;2022-10-16T04:46:16;95133.13;;;5.61;100.00
6433;BME280;3249;42.690;23.260;2022-10-16T04:48:42;95125.75;;;5.66;100.00
6433;BME280;3249;42.690;23.260;2022-10-16T04:51:07;95124.84;;;5.59;100.00
6433;BME280;3249;42.690;23.260;2022-10-16T04:53:32;95137.84;;;5.80;100.00
6433;BME280;3249;42.690;23.260;2022-10-16T04:55:58;95120.00;;;5.72;100.00
6433;BME280;3249;42.690;23.260;2022-10-16T04:58:24;95153.94;;;5.97;100.00
6433;BME280;3249;42.690;23.260;2022-10-16T05:00:49;95158.69;;;6.00;100.00
6433;BME280;3249;42.690;23.260;2022-10-16T05:03:14;95156.03;;;5.85;100.00
6433;BME280;3249;42.690;23.260;2022-10-16T05:05:44;95158.69;;;5.45;100.00
6433;BME280;3249;42.690;23.260;2022-10-16T05:08:12;95149.28;;;5.46;100.00
6433;BME280;3249;42.690;23.260;2022-10-16T05:10:38;95138.09;;;5.55;100.00
6433;BME280;3249;42.690;23.260;2022-10-16T05:13:07;95166.81;;;5.57;100.00
6433;BME280;3249;42.690;23.260;2022-10-16T05:15:33;95167.78;;;5.48;100.00
6433;BME280;3249;42.690;23.260;2022-10-16T05:17:58;95131.75;;;5.43;100.00
6433;BME280;3249;42.690;23.260;2022-10-16T05:20:24;95138.91;;;5.55;100.00
6433;BME280;3249;42.690;23.260;2022-10-16T05:22:49;95163.41;;;5.72;100.00
6433;BME280;3249;42.690;23.260;2022-10-16T05:25:15;95165.00;;;5.81;100.00
6433;BME280;3249;42.690;23.260;2022-10-16T05:27:40;95168.88;;;6.08;100.00
6433;BME280;3249;42.690;23.260;2022-10-16T05:30:06;95171.66;;;5.98;100.00
6433;BME280;3249;42.690;23.260;2022-10-16T05:32:32;95180.56;;;6.10;100.00
6433;BME280;3249;42.690;23.260;2022-10-16T05:34:58;95182.06;;;6.27;100.00
6433;BME280;3249;42.690;23.260;2022-10-16T05:37:25;95147.66;;;6.07;100.00
6433;BME280;3249;42.690;23.260;2022-10-16T05:39:51;95151.59;;;6.18;100.00
6433;BME280;3249;42.690;23.260;2022-10-16T05:42:16;95172.63;;;6.28;100.00
6433;BME280;3249;42.690;23.260;2022-10-16T05:44:41;95181.78;;;6.22;100.00
6433;BME280;3249;42.690;23.260;2022-10-16T05:47:07;95185.97;;;6.46;100.00
6433;BME280;3249;42.690;23.260;2022-10-16T05:49:32;95192.19;;;6.74;100.00
6433;BME280;3249;42.690;23.260;2022-10-16T05:51:58;95189.59;;;6.96;100.00
6433;BME280;3249;42.690;23.260;2022-10-16T05:54:23;95197.09;;;7.20;100.00
6433;BME280;3249;42.690;23.260;2022-10-16T05:56:49;95189.66;;;7.33;100.00
6433;BME280;3249;42.690;23.260;2022-10-16T05:59:14;95204.41;;;7.60;100.00
6433;BME280;3249;42.690;23.260;2022-10-16T06:01:39;95193.13;;;7.69;100.00
6433;BME280;3249;42.690;23.260;2022-10-16T06:04:05;95214.53;;;7.91;100.00
6433;BME280;3249;42.690;23.260;2022-10-16T06:06:30;95217.69;;;8.07;100.00
6433;BME280;3249;42.690;23.260;2022-10-16T06:08:56;95217.97;;;7.98;100.00
6433;BME280;3249;42.690;23.260;2022-10-16T06:11:24;95196.59;;;7.91;100.00
6433;BME280;3249;42.690;23.260;2022-10-16T06:13:51;95233.47;;;8.33;100.00
6433;BME280;3249;42.690;23.260;2022-10-16T06:16:17;95228.47;;;8.46;100.00
6433;BME280;3249;42.690;23.260;2022-10-16T06:18:43;95213.97;;;8.53;100.00
6433;BME280;3249;42.690;23.260;2022-10-16T06:21:19;95235.22;;;8.83;100.00
6433;BME280;3249;42.690;23.260;2022-10-16T06:23:46;95231.78;;;8.97;100.00
6433;BME280;3249;42.690;23.260;2022-10-16T06:26:13;95241.41;;;8.88;100.00
6433;BME280;3249;42.690;23.260;2022-10-16T06:28:39;95243.69;;;8.98;100.00
6433;BME280;3249;42.690;23.260;2022-10-16T06:31:09;95254.38;;;9.01;100.00
6433;BME280;3249;42.690;23.260;2022-10-16T06:33:37;95241.13;;;8.83;100.00
6433;BME280;3249;42.690;23.260;2022-10-16T06:36:08;95241.00;;;9.06;100.00
6433;BME280;3249;42.690;23.260;2022-10-16T06:38:34;95245.56;;;9.31;100.00
6433;BME280;3249;42.690;23.260;2022-10-16T06:41:00;95252.63;;;9.50;100.00
6433;BME280;3249;42.690;23.260;2022-10-16T06:43:26;95256.69;;;9.17;100.00
6433;BME280;3249;42.690;23.260;2022-10-16T06:45:53;95261.31;;;9.07;100.00
6433;BME280;3249;42.690;23.260;2022-10-16T06:48:19;95270.41;;;9.24;100.00
6433;BME280;3249;42.690;23.260;2022-10-16T06:50:55;95271.75;;;9.41;100.00
6433;BME280;3249;42.690;23.260;2022-10-16T06:53:21;95278.91;;;9.46;100.00
6433;BME280;3249;42.690;23.260;2022-10-16T06:55:46;95276.16;;;9.26;100.00
6433;BME280;3249;42.690;23.260;2022-10-16T06:58:12;95278.59;;;9.13;100.00
6433;BME280;3249;42.690;23.260;2022-10-16T07:00:37;95278.25;;;9.16;100.00
6433;BME280;3249;42.690;23.260;2022-10-16T07:03:02;95280.69;;;9.24;100.00
6433;BME280;3249;42.690;23.260;2022-10-16T07:05:28;95283.44;;;9.23;100.00
6433;BME280;3249;42.690;23.260;2022-10-16T07:07:53;95257.00;;;8.87;100.00
6433;BME280;3249;42.690;23.260;2022-10-16T07:10:19;95284.03;;;9.04;100.00
6433;BME280;3249;42.690;23.260;2022-10-16T07:12:44;95275.28;;;9.19;100.00
6433;BME280;3249;42.690;23.260;2022-10-16T07:15:10;95281.47;;;9.25;100.00
6433;BME280;3249;42.690;23.260;2022-10-16T07:17:35;95290.44;;;9.14;100.00
6433;BME280;3249;42.690;23.260;2022-10-16T07:20:01;95289.69;;;9.35;100.00
6433;BME280;3249;42.690;23.260;2022-10-16T07:22:28;95261.19;;;9.30;100.00
6433;BME280;3249;42.690;23.260;2022-10-16T07:24:54;95293.03;;;9.57;100.00
6433;BME280;3249;42.690;23.260;2022-10-16T07:27:19;95286.06;;;9.50;100.00
6433;BME280;3249;42.690;23.260;2022-10-16T07:29:47;95291.81;;;9.52;100.00
6433;BME280;3249;42.690;23.260;2022-10-16T07:32:12;95294.44;;;9.59;100.00
6433;BME280;3249;42.690;23.260;2022-10-16T07:34:38;95289.59;;;9.71;100.00
6433;BME280;3249;42.690;23.260;2022-10-16T07:37:03;95295.97;;;10.02;100.00
6433;BME280;3249;42.690;23.260;2022-10-16T07:39:29;95271.16;;;10.16;100.00
6433;BME280;3249;42.690;23.260;2022-10-16T07:41:54;95307.31;;;10.42;100.00
6433;BME280;3249;42.690;23.260;2022-10-16T07:44:20;95300.28;;;10.57;100.00
6433;BME280;3249;42.690;23.260;2022-10-16T07:46:45;95295.00;;;10.71;100.00
6433;BME280;3249;42.690;23.260;2022-10-16T07:49:11;95307.59;;;11.00;100.00
6433;BME280;3249;42.690;23.260;2022-10-16T07:51:37;95313.50;;;10.88;100.00
6433;BME280;3249;42.690;23.260;2022-10-16T07:54:03;95312.31;;;10.84;100.00
6433;BME280;3249;42.690;23.260;2022-10-16T07:56:31;95280.03;;;10.88;100.00
6433;BME280;3249;42.690;23.260;2022-10-16T07:58:57;95324.94;;;11.32;100.00
6433;BME280;3249;42.690;23.260;2022-10-16T08:01:22;95286.78;;;11.02;100.00
6433;BME280;3249;42.690;23.260;2022-10-16T08:03:50;95315.25;;;11.41;100.00
6433;BME280;3249;42.690;23.260;2022-10-16T08:06:16;95323.22;;;11.59;100.00
6433;BME280;3249;42.690;23.260;2022-10-16T08:08:42;95325.56;;;11.47;100.00
6433;BME280;3249;42.690;23.260;2022-10-16T08:11:08;95322.41;;;11.52;100.00
6433;BME280;3249;42.690;23.260;2022-10-16T08:13:33;95316.72;;;11.76;100.00
6433;BME280;3249;42.690;23.260;2022-10-16T08:15:59;95313.13;;;11.64;100.00
6433;BME280;3249;42.690;23.260;2022-10-16T08:18:25;95316.91;;;11.87;100.00
6433;BME280;3249;42.690;23.260;2022-10-16T08:20:58;95319.69;;;12.12;100.00
6433;BME280;3249;42.690;23.260;2022-10-16T08:23:24;95319.69;;;12.12;100.00
6433;BME280;3249;42.690;23.260;2022-10-16T08:25:51;95311.78;;;12.00;100.00
6433;BME280;3249;42.690;23.260;2022-10-16T08:28:18;95275.63;;;11.87;100.00
6433;BME280;3249;42.690;23.260;2022-10-16T08:30:43;95319.28;;;12.28;100.00
6433;BME280;3249;42.690;23.260;2022-10-16T08:33:09;95301.03;;;12.03;100.00
6433;BME280;3249;42.690;23.260;2022-10-16T08:35:34;95312.94;;;12.17;100.00
6433;BME280;3249;42.690;23.260;2022-10-16T08:38:02;95313.53;;;12.26;100.00
6433;BME280;3249;42.690;23.260;2022-10-16T08:40:30;95318.91;;;12.05;100.00
6433;BME280;3249;42.690;23.260;2022-10-16T08:48:52;95319.25;;;12.54;100.00
6433;BME280;3249;42.690;23.260;2022-10-16T08:51:28;95325.81;;;12.43;100.00
6433;BME280;3249;42.690;23.260;2022-10-16T08:53:59;95322.25;;;12.31;100.00
6433;BME280;3249;42.690;23.260;2022-10-16T08:56:27;95298.22;;;12.37;100.00
6433;BME280;3249;42.690;23.260;2022-10-16T08:58:53;95325.22;;;12.48;100.00
6433;BME280;3249;42.690;23.260;2022-10-16T09:01:21;95323.03;;;12.58;100.00
6433;BME280;3249;42.690;23.260;2022-10-16T09:04:22;95333.31;;;12.71;100.00
6433;BME280;3249;42.690;23.260;2022-10-16T09:07:10;95328.50;;;12.81;100.00
6433;BME280;3249;42.690;23.260;2022-10-16T09:09:51;95338.19;;;13.05;100.00
6433;BME280;3249;42.690;23.260;2022-10-16T09:12:30;95325.78;;;13.20;100.00
6433;BME280;3249;42.690;23.260;2022-10-16T09:15:14;95328.94;;;13.28;100.00
6433;BME280;3249;42.690;23.260;2022-10-16T09:17:57;95327.75;;;13.31;97.72
6433;BME280;3249;42.690;23.260;2022-10-16T09:20:37;95326.56;;;13.27;100.00
6433;BME280;3249;42.690;23.260;2022-10-16T09:25:30;95327.88;;;13.73;93.96
6433;BME280;3249;42.690;23.260;2022-10-16T09:27:56;95328.38;;;13.57;92.42
6433;BME280;3249;42.690;23.260;2022-10-16T09:30:22;95330.66;;;13.41;91.69
6433;BME280;3249;42.690;23.260;2022-10-16T09:32:52;95335.09;;;13.34;91.15
6433;BME280;3249;42.690;23.260;2022-10-16T09:35:27;95310.84;;;13.28;88.04
6433;BME280;3249;42.690;23.260;2022-10-16T09:37:57;95329.03;;;13.53;90.85
6433;BME280;3249;42.690;23.260;2022-10-16T09:40:30;95331.78;;;13.82;91.40
6433;BME280;3249;42.690;23.260;2022-10-16T09:43:03;95336.28;;;13.69;88.85
6433;BME280;3249;42.690;23.260;2022-10-16T09:45:32;95324.56;;;13.91;86.27
6433;BME280;3249;42.690;23.260;2022-10-16T09:47:58;95274.19;;;13.38;81.99
6433;BME280;3249;42.690;23.260;2022-10-16T09:50:29;95292.06;;;13.70;81.83
6433;BME280;3249;42.690;23.260;2022-10-16T09:53:14;95316.88;;;14.09;82.31
6433;BME280;3249;42.690;23.260;2022-10-16T09:55:53;95281.88;;;14.00;80.42
6433;BME280;3249;42.690;23.260;2022-10-16T09:58:34;95310.13;;;14.33;78.28
6433;BME280;3249;42.690;23.260;2022-10-16T10:01:00;95317.41;;;14.42;79.74
6433;BME280;3249;42.690;23.260;2022-10-16T10:03:40;95312.94;;;14.49;79.72
6433;BME280;3249;42.690;23.260;2022-10-16T10:06:25;95319.00;;;14.61;73.46
6433;BME280;3249;42.690;23.260;2022-10-16T10:14:31;95312.81;;;14.62;77.32
6433;BME280;3249;42.690;23.260;2022-10-16T10:22:20;95281.13;;;14.78;75.93
6433;BME280;3249;42.690;23.260;2022-10-16T10:24:57;95311.00;;;14.81;76.73
6433;BME280;3249;42.690;23.260;2022-10-16T10:28:26;95306.22;;;14.84;77.00
6433;BME280;3249;42.690;23.260;2022-10-16T10:36:36;95298.13;;;14.92;77.53
6433;BME280;3249;42.690;23.260;2022-10-16T10:39:15;95275.38;;;14.58;80.68
6433;BME280;3249;42.690;23.260;2022-10-16T10:50:06;95280.66;;;15.17;76.75
6433;BME280;3249;42.690;23.260;2022-10-16T11:03:31;95272.53;;;15.43;71.46
6433;BME280;3249;42.690;23.260;2022-10-16T11:08:41;95269.56;;;15.69;55.87
6433;BME280;3249;42.690;23.260;2022-10-16T11:14:34;95272.06;;;15.64;62.72
6433;BME280;3249;42.690;23.260;2022-10-16T11:17:25;95265.03;;;15.65;73.76
6433;BME280;3249;42.690;23.260;2022-10-16T11:20:13;95262.00;;;15.68;67.96
6433;BME280;3249;42.690;23.260;2022-10-16T11:22:54;95257.50;;;15.75;60.66
6433;BME280;3249;42.690;23.260;2022-10-16T11:25:27;95217.97;;;15.50;56.69
6433;BME280;3249;42.690;23.260;2022-10-16T11:28:11;95258.19;;;15.82;59.07
6433;BME280;3249;42.690;23.260;2022-10-16T11:30:47;95254.00;;;15.69;61.24
6433;BME280;3249;42.690;23.260;2022-10-16T11:40:47;95258.53;;;15.74;71.09
6433;BME280;3249;42.690;23.260;2022-10-16T11:43:29;95255.59;;;15.82;70.51
6433;BME280;3249;42.690;23.260;2022-10-16T11:46:02;95259.19;;;15.81;68.38
6433;BME280;3249;42.690;23.260;2022-10-16T11:49:19;95247.91;;;15.75;57.99
6433;BME280;3249;42.690;23.260;2022-10-16T11:51:45;95271.84;;;15.77;58.99
6433;BME280;3249;42.690;23.260;2022-10-16T11:54:34;95258.66;;;15.79;63.22
6433;BME280;3249;42.690;23.260;2022-10-16T11:57:11;95265.63;;;15.78;59.00
6433;BME280;3249;42.690;23.260;2022-10-16T12:08:11;95257.00;;;16.42;62.52
6433;BME280;3249;42.690;23.260;2022-10-16T12:10:40;95230.66;;;16.15;64.13
6433;BME280;3249;42.690;23.260;2022-10-16T12:13:35;95257.63;;;16.37;65.59
6433;BME280;3249;42.690;23.260;2022-10-16T12:18:48;95265.44;;;16.49;47.36
6433;BME280;3249;42.690;23.260;2022-10-16T12:21:15;95262.06;;;16.48;48.88
6433;BME280;3249;42.690;23.260;2022-10-16T12:23:53;95264.69;;;16.48;50.02
6433;BME280;3249;42.690;23.260;2022-10-16T12:26:31;95265.94;;;16.46;54.88
6433;BME280;3249;42.690;23.260;2022-10-16T12:29:13;95251.91;;;16.35;52.10
6433;BME280;3249;42.690;23.260;2022-10-16T12:31:44;95258.00;;;16.52;52.38
6433;BME280;3249;42.690;23.260;2022-10-16T12:34:23;95232.22;;;16.39;53.29
6433;BME280;3249;42.690;23.260;2022-10-16T12:36:53;95260.34;;;16.65;56.16
6433;BME280;3249;42.690;23.260;2022-10-16T12:39:23;95256.78;;;16.43;57.28
6433;BME280;3249;42.690;23.260;2022-10-16T12:44:55;95249.28;;;16.35;59.46
6433;BME280;3249;42.690;23.260;2022-10-16T12:47:36;95266.03;;;16.39;58.15
6433;BME280;3249;42.690;23.260;2022-10-16T12:50:03;95261.81;;;16.38;57.35
6433;BME280;3249;42.690;23.260;2022-10-16T12:52:35;95261.25;;;16.36;56.96
6433;BME280;3249;42.690;23.260;2022-10-16T12:55:01;95268.75;;;16.44;52.51
6433;BME280;3249;42.690;23.260;2022-10-16T13:00:23;95274.81;;;16.61;52.58
6433;BME280;3249;42.690;23.260;2022-10-16T13:08:20;95271.81;;;16.92;49.53
6433;BME280;3249;42.690;23.260;2022-10-16T13:19:38;95269.53;;;17.07;52.97
6433;BME280;3249;42.690;23.260;2022-10-16T13:22:22;95273.22;;;16.83;46.69
6433;BME280;3249;42.690;23.260;2022-10-16T13:30:21;95266.56;;;16.64;48.05
6433;BME280;3249;42.690;23.260;2022-10-16T13:32:59;95273.13;;;16.67;49.09
6433;BME280;3249;42.690;23.260;2022-10-16T13:35:30;95247.78;;;16.62;48.73
6433;BME280;3249;42.690;23.260;2022-10-16T13:38:16;95255.50;;;16.57;48.74
6433;BME280;3249;42.690;23.260;2022-10-16T13:43:17;95286.84;;;16.90;40.34
6433;BME280;3249;42.690;23.260;2022-10-16T13:45:55;95276.81;;;16.82;48.25
6433;BME280;3249;42.690;23.260;2022-10-16T13:48:21;95280.53;;;16.98;49.64
6433;BME280;3249;42.690;23.260;2022-10-16T13:50:58;95284.25;;;16.90;48.49
6433;BME280;3249;42.690;23.260;2022-10-16T13:53:24;95277.41;;;17.12;47.29
6433;BME280;3249;42.690;23.260;2022-10-16T13:55:49;95282.31;;;17.09;47.86
6433;BME280;3249;42.690;23.260;2022-10-16T13:58:15;95245.72;;;16.76;49.53
6433;BME280;3249;42.690;23.260;2022-10-16T14:00:53;95282.53;;;16.96;47.66
6433;BME280;3249;42.690;23.260;2022-10-16T14:03:19;95281.44;;;16.92;47.42
6433;BME280;3249;42.690;23.260;2022-10-16T14:05:51;95277.03;;;16.92;47.22
6433;BME280;3249;42.690;23.260;2022-10-16T14:08:17;95256.28;;;16.69;47.83
6433;BME280;3249;42.690;23.260;2022-10-16T14:10:47;95285.78;;;16.75;46.31
6433;BME280;3249;42.690;23.260;2022-10-16T14:13:18;95263.09;;;16.47;47.15
6433;BME280;3249;42.690;23.260;2022-10-16T14:15:47;95288.97;;;16.54;47.68
6433;BME280;3249;42.690;23.260;2022-10-16T14:18:19;95267.41;;;16.42;48.69
6433;BME280;3249;42.690;23.260;2022-10-16T14:20:46;95293.81;;;16.50;46.94
6433;BME280;3249;42.690;23.260;2022-10-16T14:23:34;95294.28;;;16.47;46.75
6433;BME280;3249;42.690;23.260;2022-10-16T14:28:36;95296.06;;;16.35;46.42
6433;BME280;3249;42.690;23.260;2022-10-16T14:33:42;95301.03;;;16.25;44.39
6433;BME280;3249;42.690;23.260;2022-10-16T14:36:13;95299.34;;;16.19;43.91
6433;BME280;3249;42.690;23.260;2022-10-16T14:38:49;95292.56;;;16.07;44.08
6433;BME280;3249;42.690;23.260;2022-10-16T14:41:15;95307.47;;;16.11;44.65
6433;BME280;3249;42.690;23.260;2022-10-16T14:43:50;95306.56;;;16.06;44.77
6433;BME280;3249;42.690;23.260;2022-10-16T14:46:19;95310.16;;;15.93;44.06
6433;BME280;3249;42.690;23.260;2022-10-16T14:48:54;95316.47;;;15.86;44.26
6433;BME280;3249;42.690;23.260;2022-10-16T14:51:22;95320.75;;;15.80;44.87
6433;BME280;3249;42.690;23.260;2022-10-16T14:53:49;95309.78;;;15.78;44.66
6433;BME280;3249;42.690;23.260;2022-10-16T14:56:19;95315.72;;;15.67;46.24
6433;BME280;3249;42.690;23.260;2022-10-16T14:58:46;95320.22;;;15.60;46.69
6433;BME280;3249;42.690;23.260;2022-10-16T15:01:12;95326.06;;;15.56;47.25
6433;BME280;3249;42.690;23.260;2022-10-16T15:03:38;95318.38;;;15.49;46.94
6433;BME280;3249;42.690;23.260;2022-10-16T15:06:10;95324.69;;;15.42;47.95
6433;BME280;3249;42.690;23.260;2022-10-16T15:08:36;95323.75;;;15.36;49.08
6433;BME280;3249;42.690;23.260;2022-10-16T15:11:02;95315.44;;;15.28;50.67
6433;BME280;3249;42.690;23.260;2022-10-16T15:13:27;95319.28;;;15.25;51.14
6433;BME280;3249;42.690;23.260;2022-10-16T15:15:53;95323.22;;;15.28;51.24
6433;BME280;3249;42.690;23.260;2022-10-16T15:18:18;95320.22;;;15.13;52.21
6433;BME280;3249;42.690;23.260;2022-10-16T15:20:51;95328.50;;;15.03;54.09